sensor_id;sensor_type;location;lat;lon;timestamp;temperature;humidity
39951;DHT22;25629;51.444;-2.606;2023-08-17T00:01:55;19.30;99.90
39951;DHT22;25629;51.444;-2.606;2023-08-17T00:04:20;19.30;99.90
39951;DHT22;25629;51.444;-2.606;2023-08-17T00:06:46;19.30;99.90
39951;DHT22;25629;51.444;-2.606;2023-08-17T00:09:12;19.20;99.90
39951;DHT22;25629;51.444;-2.606;2023-08-17T00:11:38;19.20;99.90
39951;DHT22;25629;51.444;-2.606;2023-08-17T00:14:04;19.20;99.90
39951;DHT22;25629;51.444;-2.606;2023-08-17T00:16:29;19.10;99.90
39951;DHT22;25629;51.444;-2.606;2023-08-17T00:18:55;19.00;99.90
39951;DHT22;25629;51.444;-2.606;2023-08-17T00:21:20;19.00;99.90
39951;DHT22;25629;51.444;-2.606;2023-08-17T00:23:46;19.00;99.90
39951;DHT22;25629;51.444;-2.606;2023-08-17T00:26:12;18.90;99.90
39951;DHT22;25629;51.444;-2.606;2023-08-17T00:28:37;18.90;99.90
39951;DHT22;25629;51.444;-2.606;2023-08-17T00:31:03;18.80;99.90
39951;DHT22;25629;51.444;-2.606;2023-08-17T00:33:28;18.90;99.90
39951;DHT22;25629;51.444;-2.606;2023-08-17T00:35:54;18.80;99.90
39951;DHT22;25629;51.444;-2.606;2023-08-17T00:38:20;18.80;99.90
39951;DHT22;25629;51.444;-2.606;2023-08-17T00:40:45;18.80;99.90
39951;DHT22;25629;51.444;-2.606;2023-08-17T00:43:11;18.70;99.90
39951;DHT22;25629;51.444;-2.606;2023-08-17T00:45:36;18.70;99.90
39951;DHT22;25629;51.444;-2.606;2023-08-17T00:48:02;18.70;99.90
39951;DHT22;25629;51.444;-2.606;2023-08-17T00:50:30;18.70;99.90
39951;DHT22;25629;51.444;-2.606;2023-08-17T00:52:56;18.60;99.90
39951;DHT22;25629;51.444;-2.606;2023-08-17T00:55:22;18.50;99.90
39951;DHT22;25629;51.444;-2.606;2023-08-17T00:57:48;18.50;99.90
39951;DHT22;25629;51.444;-2.606;2023-08-17T01:00:14;18.50;99.90
39951;DHT22;25629;51.444;-2.606;2023-08-17T01:02:42;18.50;99.90
39951;DHT22;25629;51.444;-2.606;2023-08-17T01:05:08;18.40;99.90
39951;DHT22;25629;51.444;-2.606;2023-08-17T01:07:34;18.50;99.90
39951;DHT22;25629;51.444;-2.606;2023-08-17T01:10:02;18.40;99.90
39951;DHT22;25629;51.444;-2.606;2023-08-17T01:12:34;18.40;99.90
39951;DHT22;25629;51.444;-2.606;2023-08-17T01:15:04;18.40;99.90
39951;DHT22;25629;51.444;-2.606;2023-08-17T01:17:37;18.40;99.90
39951;DHT22;25629;51.444;-2.606;2023-08-17T01:20:05;18.40;99.90
39951;DHT22;25629;51.444;-2.606;2023-08-17T01:22:34;18.30;99.90
39951;DHT22;25629;51.444;-2.606;2023-08-17T01:25:01;18.30;99.90
39951;DHT22;25629;51.444;-2.606;2023-08-17T01:27:36;18.20;99.90
39951;DHT22;25629;51.444;-2.606;2023-08-17T01:30:03;18.10;99.90
39951;DHT22;25629;51.444;-2.606;2023-08-17T01:32:30;18.10;99.90
39951;DHT22;25629;51.444;-2.606;2023-08-17T01:34:58;18.10;1.00
39951;DHT22;25629;51.444;-2.606;2023-08-17T01:37:28;18.00;1.00
39951;DHT22;25629;51.444;-2.606;2023-08-17T01:39:54;18.00;1.00
39951;DHT22;25629;51.444;-2.606;2023-08-17T01:42:21;18.00;1.00
39951;DHT22;25629;51.444;-2.606;2023-08-17T01:44:47;18.00;1.00
39951;DHT22;25629;51.444;-2.606;2023-08-17T01:47:13;18.00;1.00
39951;DHT22;25629;51.444;-2.606;2023-08-17T01:49:38;17.90;1.00
39951;DHT22;25629;51.444;-2.606;2023-08-17T01:52:04;17.90;1.00
39951;DHT22;25629;51.444;-2.606;2023-08-17T01:54:30;17.80;1.00
39951;DHT22;25629;51.444;-2.606;2023-08-17T01:56:56;17.80;1.00
39951;DHT22;25629;51.444;-2.606;2023-08-17T01:59:21;17.80;1.00
39951;DHT22;25629;51.444;-2.606;2023-08-17T02:01:47;17.80;1.00
39951;DHT22;25629;51.444;-2.606;2023-08-17T02:04:14;17.70;96.30
39951;DHT22;25629;51.444;-2.606;2023-08-17T02:09:07;17.60;99.90
39951;DHT22;25629;51.444;-2.606;2023-08-17T02:11:33;17.60;99.90
39951;DHT22;25629;51.444;-2.606;2023-08-17T02:13:58;17.50;99.90
39951;DHT22;25629;51.444;-2.606;2023-08-17T02:16:26;17.50;99.90
39951;DHT22;25629;51.444;-2.606;2023-08-17T02:18:52;17.40;99.90
39951;DHT22;25629;51.444;-2.606;2023-08-17T02:21:18;17.40;99.90
39951;DHT22;25629;51.444;-2.606;2023-08-17T02:23:43;17.40;99.90
39951;DHT22;25629;51.444;-2.606;2023-08-17T02:26:09;17.40;99.90
39951;DHT22;25629;51.444;-2.606;2023-08-17T02:28:34;17.40;1.00
39951;DHT22;25629;51.444;-2.606;2023-08-17T02:31:00;17.40;99.90
39951;DHT22;25629;51.444;-2.606;2023-08-17T02:33:25;17.40;1.00
39951;DHT22;25629;51.444;-2.606;2023-08-17T02:35:51;17.40;1.00
39951;DHT22;25629;51.444;-2.606;2023-08-17T02:38:17;17.40;32.50
39951;DHT22;25629;51.444;-2.606;2023-08-17T02:40:43;17.30;1.00
39951;DHT22;25629;51.444;-2.606;2023-08-17T02:43:08;17.30;1.00
39951;DHT22;25629;51.444;-2.606;2023-08-17T02:45:34;17.30;1.40
39951;DHT22;25629;51.444;-2.606;2023-08-17T02:48:00;17.30;73.50
39951;DHT22;25629;51.444;-2.606;2023-08-17T02:50:25;17.30;57.00
39951;DHT22;25629;51.444;-2.606;2023-08-17T02:52:51;17.30;99.90
39951;DHT22;25629;51.444;-2.606;2023-08-17T02:55:16;17.30;99.90
39951;DHT22;25629;51.444;-2.606;2023-08-17T02:57:42;17.20;99.90
39951;DHT22;25629;51.444;-2.606;2023-08-17T03:00:07;17.30;99.90
39951;DHT22;25629;51.444;-2.606;2023-08-17T03:02:34;17.20;99.90
39951;DHT22;25629;51.444;-2.606;2023-08-17T03:04:59;17.20;1.00
39951;DHT22;25629;51.444;-2.606;2023-08-17T03:07:25;17.20;1.00
39951;DHT22;25629;51.444;-2.606;2023-08-17T03:09:50;17.20;1.00
39951;DHT22;25629;51.444;-2.606;2023-08-17T03:12:16;17.20;64.80
39951;DHT22;25629;51.444;-2.606;2023-08-17T03:14:41;17.10;53.70
39951;DHT22;25629;51.444;-2.606;2023-08-17T03:17:07;17.10;80.30
39951;DHT22;25629;51.444;-2.606;2023-08-17T03:19:33;17.10;90.00
39951;DHT22;25629;51.444;-2.606;2023-08-17T03:21:58;17.10;99.90
39951;DHT22;25629;51.444;-2.606;2023-08-17T03:24:24;17.10;31.20
39951;DHT22;25629;51.444;-2.606;2023-08-17T03:26:49;17.00;34.30
39951;DHT22;25629;51.444;-2.606;2023-08-17T03:29:15;17.00;99.90
39951;DHT22;25629;51.444;-2.606;2023-08-17T03:31:40;17.00;99.90
39951;DHT22;25629;51.444;-2.606;2023-08-17T03:34:06;16.90;54.50
39951;DHT22;25629;51.444;-2.606;2023-08-17T03:36:32;16.90;24.10
39951;DHT22;25629;51.444;-2.606;2023-08-17T03:38:57;16.90;99.90
39951;DHT22;25629;51.444;-2.606;2023-08-17T03:41:23;16.80;99.90
39951;DHT22;25629;51.444;-2.606;2023-08-17T03:43:49;16.90;99.90
39951;DHT22;25629;51.444;-2.606;2023-08-17T03:46:14;16.80;99.90
39951;DHT22;25629;51.444;-2.606;2023-08-17T03:48:40;16.70;99.90
39951;DHT22;25629;51.444;-2.606;2023-08-17T03:51:05;16.70;1.00
39951;DHT22;25629;51.444;-2.606;2023-08-17T03:53:31;16.70;1.00
39951;DHT22;25629;51.444;-2.606;2023-08-17T03:55:56;16.70;30.60
39951;DHT22;25629;51.444;-2.606;2023-08-17T03:58:22;16.60;99.90
39951;DHT22;25629;51.444;-2.606;2023-08-17T04:00:51;16.60;99.90
39951;DHT22;25629;51.444;-2.606;2023-08-17T04:03:16;16.50;1.00
39951;DHT22;25629;51.444;-2.606;2023-08-17T04:05:42;16.50;99.90
39951;DHT22;25629;51.444;-2.606;2023-08-17T04:08:08;16.50;99.90
39951;DHT22;25629;51.444;-2.606;2023-08-17T04:10:33;16.40;1.00
39951;DHT22;25629;51.444;-2.606;2023-08-17T04:12:59;16.40;76.40
39951;DHT22;25629;51.444;-2.606;2023-08-17T04:15:24;16.40;8.30
39951;DHT22;25629;51.444;-2.606;2023-08-17T04:17:50;16.40;99.90
39951;DHT22;25629;51.444;-2.606;2023-08-17T04:20:15;16.40;99.90
39951;DHT22;25629;51.444;-2.606;2023-08-17T04:22:41;16.40;3.00
39951;DHT22;25629;51.444;-2.606;2023-08-17T04:25:07;16.40;99.90
39951;DHT22;25629;51.444;-2.606;2023-08-17T04:27:35;16.40;99.90
39951;DHT22;25629;51.444;-2.606;2023-08-17T04:30:00;16.30;29.90
39951;DHT22;25629;51.444;-2.606;2023-08-17T04:32:26;16.30;99.90
39951;DHT22;25629;51.444;-2.606;2023-08-17T04:34:52;16.30;99.90
39951;DHT22;25629;51.444;-2.606;2023-08-17T04:37:17;16.30;1.00
39951;DHT22;25629;51.444;-2.606;2023-08-17T04:39:43;16.20;1.00
39951;DHT22;25629;51.444;-2.606;2023-08-17T04:42:09;16.20;13.80
39951;DHT22;25629;51.444;-2.606;2023-08-17T04:44:34;16.20;99.90
39951;DHT22;25629;51.444;-2.606;2023-08-17T04:47:00;16.10;99.90
39951;DHT22;25629;51.444;-2.606;2023-08-17T04:49:26;16.10;99.90
39951;DHT22;25629;51.444;-2.606;2023-08-17T04:51:51;16.00;1.00
39951;DHT22;25629;51.444;-2.606;2023-08-17T04:54:17;16.00;1.00
39951;DHT22;25629;51.444;-2.606;2023-08-17T04:56:43;16.00;1.00
39951;DHT22;25629;51.444;-2.606;2023-08-17T04:59:09;16.00;1.00
39951;DHT22;25629;51.444;-2.606;2023-08-17T05:01:34;16.00;1.00
39951;DHT22;25629;51.444;-2.606;2023-08-17T05:04:00;16.00;1.00
39951;DHT22;25629;51.444;-2.606;2023-08-17T05:06:27;16.00;1.00
39951;DHT22;25629;51.444;-2.606;2023-08-17T05:08:53;15.90;1.00
39951;DHT22;25629;51.444;-2.606;2023-08-17T05:11:18;15.90;1.00
39951;DHT22;25629;51.444;-2.606;2023-08-17T05:13:44;15.90;1.00
39951;DHT22;25629;51.444;-2.606;2023-08-17T05:16:10;15.90;1.00
39951;DHT22;25629;51.444;-2.606;2023-08-17T05:18:35;15.80;9.80
39951;DHT22;25629;51.444;-2.606;2023-08-17T05:21:01;15.90;24.90
39951;DHT22;25629;51.444;-2.606;2023-08-17T05:23:26;15.90;30.00
39951;DHT22;25629;51.444;-2.606;2023-08-17T05:25:52;15.80;38.70
39951;DHT22;25629;51.444;-2.606;2023-08-17T05:28:17;15.80;49.40
39951;DHT22;25629;51.444;-2.606;2023-08-17T05:30:43;15.80;54.80
39951;DHT22;25629;51.444;-2.606;2023-08-17T05:33:09;15.90;65.00
39951;DHT22;25629;51.444;-2.606;2023-08-17T05:35:34;15.90;69.20
39951;DHT22;25629;51.444;-2.606;2023-08-17T05:38:00;15.90;73.20
39951;DHT22;25629;51.444;-2.606;2023-08-17T05:40:25;16.00;76.60
39951;DHT22;25629;51.444;-2.606;2023-08-17T05:42:51;16.00;78.10
39951;DHT22;25629;51.444;-2.606;2023-08-17T05:45:16;16.00;80.00
39951;DHT22;25629;51.444;-2.606;2023-08-17T05:47:42;16.10;81.10
39951;DHT22;25629;51.444;-2.606;2023-08-17T05:50:08;16.10;81.10
39951;DHT22;25629;51.444;-2.606;2023-08-17T05:52:33;16.10;85.30
39951;DHT22;25629;51.444;-2.606;2023-08-17T05:54:59;16.20;89.20
39951;DHT22;25629;51.444;-2.606;2023-08-17T05:57:24;16.20;88.30
39951;DHT22;25629;51.444;-2.606;2023-08-17T05:59:50;16.30;90.70
39951;DHT22;25629;51.444;-2.606;2023-08-17T06:02:16;16.30;91.40
39951;DHT22;25629;51.444;-2.606;2023-08-17T06:04:41;16.40;91.40
39951;DHT22;25629;51.444;-2.606;2023-08-17T06:07:07;16.60;90.90
39951;DHT22;25629;51.444;-2.606;2023-08-17T06:09:32;16.70;88.30
39951;DHT22;25629;51.444;-2.606;2023-08-17T06:11:58;16.80;86.20
39951;DHT22;25629;51.444;-2.606;2023-08-17T06:14:24;16.90;81.00
39951;DHT22;25629;51.444;-2.606;2023-08-17T06:16:49;17.10;74.50
39951;DHT22;25629;51.444;-2.606;2023-08-17T06:19:15;17.20;73.90
39951;DHT22;25629;51.444;-2.606;2023-08-17T06:21:41;17.20;67.60
39951;DHT22;25629;51.444;-2.606;2023-08-17T06:24:06;17.30;59.90
39951;DHT22;25629;51.444;-2.606;2023-08-17T06:26:32;17.40;60.60
39951;DHT22;25629;51.444;-2.606;2023-08-17T06:28:57;17.40;60.00
39951;DHT22;25629;51.444;-2.606;2023-08-17T06:31:23;17.50;58.00
39951;DHT22;25629;51.444;-2.606;2023-08-17T06:33:55;17.60;54.10
39951;DHT22;25629;51.444;-2.606;2023-08-17T06:36:21;17.60;49.30
39951;DHT22;25629;51.444;-2.606;2023-08-17T06:38:47;17.70;48.30
39951;DHT22;25629;51.444;-2.606;2023-08-17T06:41:12;17.80;42.40
39951;DHT22;25629;51.444;-2.606;2023-08-17T06:43:38;17.90;31.10
39951;DHT22;25629;51.444;-2.606;2023-08-17T06:46:04;18.00;3.90
39951;DHT22;25629;51.444;-2.606;2023-08-17T06:48:29;18.10;1.00
39951;DHT22;25629;51.444;-2.606;2023-08-17T06:50:56;18.20;1.00
39951;DHT22;25629;51.444;-2.606;2023-08-17T06:53:22;18.20;1.00
39951;DHT22;25629;51.444;-2.606;2023-08-17T06:55:48;18.20;1.00
39951;DHT22;25629;51.444;-2.606;2023-08-17T06:58:13;18.20;1.00
39951;DHT22;25629;51.444;-2.606;2023-08-17T07:00:39;18.30;1.00
39951;DHT22;25629;51.444;-2.606;2023-08-17T07:03:06;18.40;1.00
39951;DHT22;25629;51.444;-2.606;2023-08-17T07:05:32;18.40;99.90
39951;DHT22;25629;51.444;-2.606;2023-08-17T07:07:57;18.50;99.90
39951;DHT22;25629;51.444;-2.606;2023-08-17T07:10:24;18.40;58.20
39951;DHT22;25629;51.444;-2.606;2023-08-17T07:12:50;18.40;99.90
39951;DHT22;25629;51.444;-2.606;2023-08-17T07:15:15;18.40;99.90
39951;DHT22;25629;51.444;-2.606;2023-08-17T07:17:41;18.50;18.70
39951;DHT22;25629;51.444;-2.606;2023-08-17T07:20:07;18.60;99.90
39951;DHT22;25629;51.444;-2.606;2023-08-17T07:22:33;18.70;1.00
39951;DHT22;25629;51.444;-2.606;2023-08-17T07:24:58;18.90;99.90
39951;DHT22;25629;51.444;-2.606;2023-08-17T07:27:24;19.00;36.20
39951;DHT22;25629;51.444;-2.606;2023-08-17T07:29:50;19.20;99.90
39951;DHT22;25629;51.444;-2.606;2023-08-17T07:32:15;19.30;99.90
39951;DHT22;25629;51.444;-2.606;2023-08-17T07:34:41;19.20;99.90
39951;DHT22;25629;51.444;-2.606;2023-08-17T07:37:06;19.30;1.00
39951;DHT22;25629;51.444;-2.606;2023-08-17T07:39:32;19.30;99.90
39951;DHT22;25629;51.444;-2.606;2023-08-17T07:41:58;19.40;99.90
39951;DHT22;25629;51.444;-2.606;2023-08-17T07:44:23;19.50;1.00
39951;DHT22;25629;51.444;-2.606;2023-08-17T07:46:49;19.60;1.00
39951;DHT22;25629;51.444;-2.606;2023-08-17T07:49:14;19.70;99.90
39951;DHT22;25629;51.444;-2.606;2023-08-17T07:51:40;19.90;99.90
39951;DHT22;25629;51.444;-2.606;2023-08-17T07:54:06;19.90;99.90
39951;DHT22;25629;51.444;-2.606;2023-08-17T07:56:31;19.90;97.30
39951;DHT22;25629;51.444;-2.606;2023-08-17T07:58:57;19.80;99.90
39951;DHT22;25629;51.444;-2.606;2023-08-17T08:01:22;19.90;92.50
39951;DHT22;25629;51.444;-2.606;2023-08-17T08:03:48;19.90;89.80
39951;DHT22;25629;51.444;-2.606;2023-08-17T08:06:14;20.00;87.90
39951;DHT22;25629;51.444;-2.606;2023-08-17T08:08:39;20.00;52.60
39951;DHT22;25629;51.444;-2.606;2023-08-17T08:11:05;20.20;1.00
39951;DHT22;25629;51.444;-2.606;2023-08-17T08:13:31;20.40;1.00
39951;DHT22;25629;51.444;-2.606;2023-08-17T08:15:58;20.50;1.00
39951;DHT22;25629;51.444;-2.606;2023-08-17T08:18:23;20.50;1.00
39951;DHT22;25629;51.444;-2.606;2023-08-17T08:20:49;20.50;1.00
39951;DHT22;25629;51.444;-2.606;2023-08-17T08:23:14;20.70;1.00
39951;DHT22;25629;51.444;-2.606;2023-08-17T08:25:40;20.80;99.90
39951;DHT22;25629;51.444;-2.606;2023-08-17T08:28:06;20.90;99.90
39951;DHT22;25629;51.444;-2.606;2023-08-17T08:30:32;21.00;99.90
39951;DHT22;25629;51.444;-2.606;2023-08-17T08:32:57;21.10;99.90
39951;DHT22;25629;51.444;-2.606;2023-08-17T08:35:24;21.00;99.90
39951;DHT22;25629;51.444;-2.606;2023-08-17T08:37:50;21.00;99.90
39951;DHT22;25629;51.444;-2.606;2023-08-17T08:40:15;21.00;99.90
39951;DHT22;25629;51.444;-2.606;2023-08-17T08:42:42;21.00;99.90
39951;DHT22;25629;51.444;-2.606;2023-08-17T08:45:07;21.40;99.90
39951;DHT22;25629;51.444;-2.606;2023-08-17T08:47:33;21.90;99.90
39951;DHT22;25629;51.444;-2.606;2023-08-17T08:50:00;22.80;99.90
39951;DHT22;25629;51.444;-2.606;2023-08-17T08:52:32;23.30;99.90
39951;DHT22;25629;51.444;-2.606;2023-08-17T08:54:59;23.00;99.90
39951;DHT22;25629;51.444;-2.606;2023-08-17T08:57:26;22.50;99.90
39951;DHT22;25629;51.444;-2.606;2023-08-17T08:59:53;22.60;99.90
39951;DHT22;25629;51.444;-2.606;2023-08-17T09:02:19;22.80;99.90
39951;DHT22;25629;51.444;-2.606;2023-08-17T09:04:44;23.20;99.90
39951;DHT22;25629;51.444;-2.606;2023-08-17T09:07:11;23.30;99.90
39951;DHT22;25629;51.444;-2.606;2023-08-17T09:09:37;23.30;99.90
39951;DHT22;25629;51.444;-2.606;2023-08-17T09:12:03;23.30;99.90
39951;DHT22;25629;51.444;-2.606;2023-08-17T09:14:29;23.40;99.90
39951;DHT22;25629;51.444;-2.606;2023-08-17T09:16:55;23.60;99.90
39951;DHT22;25629;51.444;-2.606;2023-08-17T09:19:24;23.70;99.90
39951;DHT22;25629;51.444;-2.606;2023-08-17T09:21:50;23.50;99.90
39951;DHT22;25629;51.444;-2.606;2023-08-17T09:24:16;23.40;99.90
39951;DHT22;25629;51.444;-2.606;2023-08-17T09:26:41;23.40;99.90
39951;DHT22;25629;51.444;-2.606;2023-08-17T09:29:20;23.60;99.90
39951;DHT22;25629;51.444;-2.606;2023-08-17T09:31:46;23.80;99.90
39951;DHT22;25629;51.444;-2.606;2023-08-17T09:34:13;23.90;99.90
39951;DHT22;25629;51.444;-2.606;2023-08-17T09:36:39;23.90;99.90
39951;DHT22;25629;51.444;-2.606;2023-08-17T09:39:05;23.60;99.90
39951;DHT22;25629;51.444;-2.606;2023-08-17T09:41:37;23.40;99.90
39951;DHT22;25629;51.444;-2.606;2023-08-17T09:44:03;23.40;99.90
39951;DHT22;25629;51.444;-2.606;2023-08-17T09:46:29;23.60;99.90
39951;DHT22;25629;51.444;-2.606;2023-08-17T09:48:55;24.30;99.90
39951;DHT22;25629;51.444;-2.606;2023-08-17T09:51:20;25.10;99.90
39951;DHT22;25629;51.444;-2.606;2023-08-17T09:53:51;25.80;99.90
39951;DHT22;25629;51.444;-2.606;2023-08-17T09:56:16;26.20;99.90
39951;DHT22;25629;51.444;-2.606;2023-08-17T09:58:42;26.20;99.90
39951;DHT22;25629;51.444;-2.606;2023-08-17T10:01:08;25.80;99.90
39951;DHT22;25629;51.444;-2.606;2023-08-17T10:03:34;25.70;99.90
39951;DHT22;25629;51.444;-2.606;2023-08-17T10:06:06;25.60;99.90
39951;DHT22;25629;51.444;-2.606;2023-08-17T10:08:45;25.70;99.90
39951;DHT22;25629;51.444;-2.606;2023-08-17T10:11:12;25.70;99.90
39951;DHT22;25629;51.444;-2.606;2023-08-17T10:13:51;25.70;99.90
39951;DHT22;25629;51.444;-2.606;2023-08-17T10:16:22;26.10;99.90
39951;DHT22;25629;51.444;-2.606;2023-08-17T10:21:20;26.60;99.90
39951;DHT22;25629;51.444;-2.606;2023-08-17T10:23:47;26.90;99.90
39951;DHT22;25629;51.444;-2.606;2023-08-17T10:26:13;27.00;99.90
39951;DHT22;25629;51.444;-2.606;2023-08-17T10:28:38;27.20;99.90
39951;DHT22;25629;51.444;-2.606;2023-08-17T10:31:04;27.20;99.90
39951;DHT22;25629;51.444;-2.606;2023-08-17T10:33:30;27.00;99.90
39951;DHT22;25629;51.444;-2.606;2023-08-17T10:35:56;26.60;99.90
39951;DHT22;25629;51.444;-2.606;2023-08-17T10:38:22;26.20;99.90
39951;DHT22;25629;51.444;-2.606;2023-08-17T10:41:07;26.20;99.90
39951;DHT22;25629;51.444;-2.606;2023-08-17T10:43:33;26.40;99.90
39951;DHT22;25629;51.444;-2.606;2023-08-17T10:46:14;26.40;99.90
39951;DHT22;25629;51.444;-2.606;2023-08-17T10:48:40;26.30;99.90
39951;DHT22;25629;51.444;-2.606;2023-08-17T10:51:08;26.20;99.90
39951;DHT22;25629;51.444;-2.606;2023-08-17T10:53:38;26.00;99.90
39951;DHT22;25629;51.444;-2.606;2023-08-17T10:56:08;25.70;99.90
39951;DHT22;25629;51.444;-2.606;2023-08-17T10:58:35;25.70;99.90
39951;DHT22;25629;51.444;-2.606;2023-08-17T11:01:01;25.70;99.90
39951;DHT22;25629;51.444;-2.606;2023-08-17T11:03:27;25.50;99.90
39951;DHT22;25629;51.444;-2.606;2023-08-17T11:05:54;25.40;99.90
39951;DHT22;25629;51.444;-2.606;2023-08-17T11:08:23;25.30;99.90
39951;DHT22;25629;51.444;-2.606;2023-08-17T11:11:01;25.20;99.90
39951;DHT22;25629;51.444;-2.606;2023-08-17T11:13:45;25.20;99.90
39951;DHT22;25629;51.444;-2.606;2023-08-17T11:16:14;25.20;99.90
39951;DHT22;25629;51.444;-2.606;2023-08-17T11:18:40;25.20;99.90
39951;DHT22;25629;51.444;-2.606;2023-08-17T11:21:09;25.10;99.90
39951;DHT22;25629;51.444;-2.606;2023-08-17T11:23:36;25.40;99.90
39951;DHT22;25629;51.444;-2.606;2023-08-17T11:26:02;26.00;99.90
39951;DHT22;25629;51.444;-2.606;2023-08-17T11:28:31;26.10;99.90
39951;DHT22;25629;51.444;-2.606;2023-08-17T11:31:08;26.20;99.90
39951;DHT22;25629;51.444;-2.606;2023-08-17T11:33:34;26.20;99.90
39951;DHT22;25629;51.444;-2.606;2023-08-17T11:36:01;26.10;99.90
39951;DHT22;25629;51.444;-2.606;2023-08-17T11:38:32;26.10;99.90
39951;DHT22;25629;51.444;-2.606;2023-08-17T11:40:58;25.90;99.90
39951;DHT22;25629;51.444;-2.606;2023-08-17T11:43:24;25.70;99.90
39951;DHT22;25629;51.444;-2.606;2023-08-17T11:45:50;25.70;99.90
39951;DHT22;25629;51.444;-2.606;2023-08-17T11:48:18;25.60;99.90
39951;DHT22;25629;51.444;-2.606;2023-08-17T11:50:43;25.60;99.90
39951;DHT22;25629;51.444;-2.606;2023-08-17T11:53:09;25.40;99.90
39951;DHT22;25629;51.444;-2.606;2023-08-17T11:55:34;25.40;99.90
39951;DHT22;25629;51.444;-2.606;2023-08-17T11:58:01;25.40;99.90
39951;DHT22;25629;51.444;-2.606;2023-08-17T12:00:27;25.20;99.90
39951;DHT22;25629;51.444;-2.606;2023-08-17T12:02:52;25.00;99.90
39951;DHT22;25629;51.444;-2.606;2023-08-17T12:05:19;24.90;99.90
39951;DHT22;25629;51.444;-2.606;2023-08-17T12:07:45;24.80;99.90
39951;DHT22;25629;51.444;-2.606;2023-08-17T12:10:10;24.80;99.90
39951;DHT22;25629;51.444;-2.606;2023-08-17T12:12:36;24.80;99.90
39951;DHT22;25629;51.444;-2.606;2023-08-17T12:15:03;25.00;99.90
39951;DHT22;25629;51.444;-2.606;2023-08-17T12:17:29;25.30;99.90
39951;DHT22;25629;51.444;-2.606;2023-08-17T12:19:55;25.30;99.90
39951;DHT22;25629;51.444;-2.606;2023-08-17T12:22:22;25.50;99.90
39951;DHT22;25629;51.444;-2.606;2023-08-17T12:24:49;25.80;99.90
39951;DHT22;25629;51.444;-2.606;2023-08-17T12:27:14;26.10;99.90
39951;DHT22;25629;51.444;-2.606;2023-08-17T12:29:46;26.40;99.90
39951;DHT22;25629;51.444;-2.606;2023-08-17T12:32:13;26.60;99.90
39951;DHT22;25629;51.444;-2.606;2023-08-17T12:34:39;26.50;99.90
39951;DHT22;25629;51.444;-2.606;2023-08-17T12:37:04;26.40;99.90
39951;DHT22;25629;51.444;-2.606;2023-08-17T12:39:30;26.00;99.90
39951;DHT22;25629;51.444;-2.606;2023-08-17T12:41:55;25.80;99.90
39951;DHT22;25629;51.444;-2.606;2023-08-17T12:44:21;25.60;99.90
39951;DHT22;25629;51.444;-2.606;2023-08-17T12:46:46;25.30;99.90
39951;DHT22;25629;51.444;-2.606;2023-08-17T12:49:12;25.10;99.90
39951;DHT22;25629;51.444;-2.606;2023-08-17T12:51:38;25.10;99.90
39951;DHT22;25629;51.444;-2.606;2023-08-17T12:54:03;25.00;99.90
39951;DHT22;25629;51.444;-2.606;2023-08-17T12:56:29;25.10;99.90
39951;DHT22;25629;51.444;-2.606;2023-08-17T12:58:54;25.20;99.90
39951;DHT22;25629;51.444;-2.606;2023-08-17T13:01:20;25.40;99.90
39951;DHT22;25629;51.444;-2.606;2023-08-17T13:03:45;25.60;99.90
39951;DHT22;25629;51.444;-2.606;2023-08-17T13:06:11;25.70;99.90
39951;DHT22;25629;51.444;-2.606;2023-08-17T13:08:37;25.80;99.90
39951;DHT22;25629;51.444;-2.606;2023-08-17T13:11:02;26.10;99.90
39951;DHT22;25629;51.444;-2.606;2023-08-17T13:13:28;26.30;99.90
39951;DHT22;25629;51.444;-2.606;2023-08-17T13:15:53;26.20;99.90
39951;DHT22;25629;51.444;-2.606;2023-08-17T13:18:19;25.90;99.90
39951;DHT22;25629;51.444;-2.606;2023-08-17T13:20:44;25.90;99.90
39951;DHT22;25629;51.444;-2.606;2023-08-17T13:23:10;26.00;99.90
39951;DHT22;25629;51.444;-2.606;2023-08-17T13:25:36;26.30;99.90
39951;DHT22;25629;51.444;-2.606;2023-08-17T13:28:01;26.60;99.90
39951;DHT22;25629;51.444;-2.606;2023-08-17T13:30:27;26.90;99.90
39951;DHT22;25629;51.444;-2.606;2023-08-17T13:32:53;27.20;99.90
39951;DHT22;25629;51.444;-2.606;2023-08-17T13:35:18;27.30;99.90
39951;DHT22;25629;51.444;-2.606;2023-08-17T13:37:44;27.40;99.90
39951;DHT22;25629;51.444;-2.606;2023-08-17T13:40:09;27.30;99.90
39951;DHT22;25629;51.444;-2.606;2023-08-17T13:42:35;27.40;99.90
39951;DHT22;25629;51.444;-2.606;2023-08-17T13:45:02;27.40;99.90
39951;DHT22;25629;51.444;-2.606;2023-08-17T13:47:28;27.60;99.90
39951;DHT22;25629;51.444;-2.606;2023-08-17T13:49:54;27.90;99.90
39951;DHT22;25629;51.444;-2.606;2023-08-17T13:52:20;27.90;99.90
39951;DHT22;25629;51.444;-2.606;2023-08-17T13:54:45;27.90;99.90
39951;DHT22;25629;51.444;-2.606;2023-08-17T13:57:11;27.70;99.90
39951;DHT22;25629;51.444;-2.606;2023-08-17T13:59:37;27.60;99.90
39951;DHT22;25629;51.444;-2.606;2023-08-17T14:02:02;27.90;99.90
39951;DHT22;25629;51.444;-2.606;2023-08-17T14:04:28;28.10;99.90
39951;DHT22;25629;51.444;-2.606;2023-08-17T14:06:53;28.30;99.90
39951;DHT22;25629;51.444;-2.606;2023-08-17T14:09:19;28.40;99.90
39951;DHT22;25629;51.444;-2.606;2023-08-17T14:11:44;28.50;99.90
39951;DHT22;25629;51.444;-2.606;2023-08-17T14:14:10;28.50;99.90
39951;DHT22;25629;51.444;-2.606;2023-08-17T14:16:36;28.70;99.90
39951;DHT22;25629;51.444;-2.606;2023-08-17T14:19:01;28.60;99.90
39951;DHT22;25629;51.444;-2.606;2023-08-17T14:21:27;28.70;99.90
39951;DHT22;25629;51.444;-2.606;2023-08-17T14:23:52;28.40;99.90
39951;DHT22;25629;51.444;-2.606;2023-08-17T14:26:18;28.50;99.90
39951;DHT22;25629;51.444;-2.606;2023-08-17T14:28:43;28.00;99.90
39951;DHT22;25629;51.444;-2.606;2023-08-17T14:31:09;27.70;99.90
39951;DHT22;25629;51.444;-2.606;2023-08-17T14:33:37;27.10;99.90
39951;DHT22;25629;51.444;-2.606;2023-08-17T14:36:02;26.70;99.90
39951;DHT22;25629;51.444;-2.606;2023-08-17T14:38:28;26.40;99.90
39951;DHT22;25629;51.444;-2.606;2023-08-17T14:40:53;26.20;99.90
39951;DHT22;25629;51.444;-2.606;2023-08-17T14:43:19;26.00;99.90
39951;DHT22;25629;51.444;-2.606;2023-08-17T14:45:44;26.00;99.90
39951;DHT22;25629;51.444;-2.606;2023-08-17T14:48:10;25.90;99.90
39951;DHT22;25629;51.444;-2.606;2023-08-17T14:50:36;25.90;99.90
39951;DHT22;25629;51.444;-2.606;2023-08-17T14:53:02;26.00;99.90
39951;DHT22;25629;51.444;-2.606;2023-08-17T14:55:29;25.80;99.90
39951;DHT22;25629;51.444;-2.606;2023-08-17T14:57:54;25.70;99.90
39951;DHT22;25629;51.444;-2.606;2023-08-17T15:00:20;25.70;99.90
39951;DHT22;25629;51.444;-2.606;2023-08-17T15:02:46;25.50;99.90
39951;DHT22;25629;51.444;-2.606;2023-08-17T15:05:11;25.40;99.90
39951;DHT22;25629;51.444;-2.606;2023-08-17T15:07:37;25.20;99.90
39951;DHT22;25629;51.444;-2.606;2023-08-17T15:10:02;25.10;99.90
39951;DHT22;25629;51.444;-2.606;2023-08-17T15:12:28;24.90;99.90
39951;DHT22;25629;51.444;-2.606;2023-08-17T15:14:53;24.80;99.90
39951;DHT22;25629;51.444;-2.606;2023-08-17T15:17:19;24.70;99.90